Time;durP1;ratioP1;P1;durP2;ratioP2;P2;SDS_P1;SDS_P2;PMS_P1;PMS_P2;Temp;Humidity;BMP_temperature;BMP_pressure;BME280_temperature;BME280_humidity;BME280_pressure;Samples;Min_cycle;Max_cycle;Signal;HPM_P1;HPM_P2
2021/06/03 00:00:49;;;;;;;6.28;3.17;;;;;;;15.23;82.69;98761.00;5048564;28;20028;-63
2021/06/03 00:03:16;;;;;;;6.28;3.20;;;;;;;15.15;82.55;98762.19;5047792;28;20343;-63
2021/06/03 00:05:48;;;;;;;5.85;3.20;;;;;;;15.11;83.22;98761.47;5050741;28;20083;-63
2021/06/03 00:08:15;;;;;;;3.97;2.78;;;;;;;15.05;83.13;98756.38;5046073;28;20044;-63
2021/06/03 00:10:50;;;;;;;3.90;2.90;;;;;;;15.06;83.26;98762.50;5046060;28;20029;-63
2021/06/03 00:13:16;;;;;;;5.22;2.97;;;;;;;15.07;82.94;98753.66;5048387;28;20017;-63
2021/06/03 00:15:41;;;;;;;5.70;3.30;;;;;;;14.96;82.94;98761.13;5045961;28;20044;-63
2021/06/03 00:18:07;;;;;;;5.90;3.53;;;;;;;14.92;83.67;98759.50;5045898;28;20024;-63
2021/06/03 00:20:34;;;;;;;8.20;3.30;;;;;;;14.91;83.49;98760.44;5047133;28;20021;-63
2021/06/03 00:23:01;;;;;;;4.70;3.38;;;;;;;14.84;84.56;98761.56;5046943;28;20021;-63
2021/06/03 00:25:26;;;;;;;5.05;3.25;;;;;;;14.82;84.80;98758.09;5047970;28;20032;-63
2021/06/03 00:27:52;;;;;;;5.13;3.83;;;;;;;14.84;85.48;98756.25;5046978;28;20021;-63
2021/06/03 00:30:18;;;;;;;5.00;3.38;;;;;;;14.82;84.80;98758.97;5046906;28;20013;-63
2021/06/03 00:32:43;;;;;;;9.27;3.63;;;;;;;14.83;84.10;98759.81;5048412;28;20243;-63
2021/06/03 00:35:09;;;;;;;5.50;3.50;;;;;;;14.78;83.88;98761.75;5047426;28;20106;-63
2021/06/03 00:37:35;;;;;;;7.85;3.22;;;;;;;14.79;84.19;98758.19;5046986;28;20088;-63
2021/06/03 00:40:04;;;;;;;8.95;3.45;;;;;;;14.71;84.09;98754.91;5047952;28;20088;-63
2021/06/03 00:42:29;;;;;;;3.55;2.70;;;;;;;14.71;84.60;98757.56;5057786;28;20062;-63
2021/06/03 00:44:55;;;;;;;5.10;3.15;;;;;;;14.64;84.45;98759.56;5062937;28;20025;-63
2021/06/03 00:47:20;;;;;;;12.35;3.38;;;;;;;14.63;84.27;98759.63;5064213;28;20021;-63
2021/06/03 00:49:46;;;;;;;5.60;3.38;;;;;;;14.64;84.34;98758.69;5064160;28;20024;-63
2021/06/03 00:52:11;;;;;;;5.72;2.97;;;;;;;14.64;84.45;98761.34;5064145;28;20013;-63
2021/06/03 00:54:36;;;;;;;6.78;3.05;;;;;;;14.67;84.42;98763.91;5061609;28;20021;-63
2021/06/03 00:57:02;;;;;;;7.75;3.30;;;;;;;14.72;83.82;98764.63;5057231;28;20040;-63
2021/06/03 00:59:28;;;;;;;4.13;2.72;;;;;;;14.65;83.61;98760.44;5062131;28;20025;-63
2021/06/03 01:01:53;;;;;;;5.05;3.22;;;;;;;14.55;83.71;98759.88;5062827;28;20313;-63
2021/06/03 01:04:21;;;;;;;4.93;2.95;;;;;;;14.60;84.06;98760.59;5058845;28;20029;-63
2021/06/03 01:06:48;;;;;;;6.78;3.10;;;;;;;14.51;84.02;98762.66;5059299;28;20020;-63
2021/06/03 01:09:30;;;;;;;6.47;3.58;;;;;;;14.54;83.93;98767.88;5060736;28;20205;-63
2021/06/03 01:12:28;;;;;;;5.15;3.25;;;;;;;14.42;84.43;98768.25;5059114;28;20040;-63
2021/06/03 01:14:58;;;;;;;3.53;3.00;;;;;;;14.36;84.31;98769.34;5058608;28;20045;-63
2021/06/03 01:17:25;;;;;;;4.43;3.40;;;;;;;14.33;84.47;98758.00;5058283;28;20213;-63
2021/06/03 01:19:51;;;;;;;11.23;3.33;;;;;;;14.32;84.82;98766.84;5059026;28;20084;-63
2021/06/03 01:22:52;;;;;;;4.32;2.90;;;;;;;14.29;84.90;98756.34;5058691;28;20029;-63
2021/06/03 01:25:20;;;;;;;4.20;3.38;;;;;;;14.40;84.59;98760.38;5058160;28;20044;-63
2021/06/03 01:27:46;;;;;;;4.35;3.38;;;;;;;14.35;84.49;98764.09;5059749;28;20013;-64
2021/06/03 01:30:21;;;;;;;4.57;2.90;;;;;;;14.34;84.37;98760.56;5057349;28;20016;-64
2021/06/03 01:32:58;;;;;;;3.97;3.22;;;;;;;14.37;83.88;98767.56;5061686;28;20220;-64
2021/06/03 01:35:34;;;;;;;5.47;3.03;;;;;;;14.22;84.09;98766.25;5044825;28;20383;-64
2021/06/03 01:38:03;;;;;;;6.05;3.20;;;;;;;14.20;84.27;98761.88;5046337;28;20335;-65
2021/06/03 01:40:31;;;;;;;3.95;3.33;;;;;;;14.15;85.13;98758.53;5043712;28;20017;-65
2021/06/03 01:42:56;;;;;;;4.85;3.00;;;;;;;14.21;84.78;98764.50;5043840;28;20303;-65
2021/06/03 01:45:22;;;;;;;5.57;3.63;;;;;;;14.11;84.95;98762.22;5043647;28;20044;-65
2021/06/03 01:47:49;;;;;;;6.28;3.25;;;;;;;14.11;85.08;98762.22;5043591;28;20025;-65
2021/06/03 01:50:16;;;;;;;4.85;3.00;;;;;;;14.12;84.99;98769.22;5043648;28;20026;-65
2021/06/03 01:52:42;;;;;;;5.60;2.90;;;;;;;14.21;84.74;98768.94;5046494;28;20025;-65
2021/06/03 01:55:10;;;;;;;3.83;3.20;;;;;;;14.21;84.12;98763.63;5048669;28;20028;-65
2021/06/03 01:57:37;;;;;;;3.08;2.78;;;;;;;14.01;85.07;98776.59;5045912;28;20024;-65
2021/06/03 02:00:04;;;;;;;5.28;2.88;;;;;;;13.97;85.88;98765.28;5048548;28;20049;-65
2021/06/03 02:02:30;;;;;;;4.97;3.25;;;;;;;13.91;86.34;98775.16;5049881;28;20029;-65
2021/06/03 02:04:55;;;;;;;4.60;3.20;;;;;;;13.91;85.88;98764.56;5058653;28;20027;-65
2021/06/03 02:07:21;;;;;;;6.32;3.42;;;;;;;13.90;85.74;98773.44;5061177;28;20021;-65
2021/06/03 02:09:46;;;;;;;5.30;3.42;;;;;;;13.95;85.52;98766.25;5060113;28;20066;-65
2021/06/03 02:12:12;;;;;;;7.57;3.17;;;;;;;14.01;85.73;98771.31;5060918;28;20335;-65
2021/06/03 02:14:40;;;;;;;5.95;3.55;;;;;;;14.13;85.86;98770.94;5058593;28;20040;-65
2021/06/03 02:17:16;;;;;;;3.53;2.65;;;;;;;14.13;84.57;98765.66;5058445;28;20021;-65
2021/06/03 02:19:48;;;;;;;4.78;3.10;;;;;;;14.13;85.08;98765.66;5062040;28;20026;-64
2021/06/03 02:22:13;;;;;;;;;;;;;;;14.20;84.40;98767.19;5064107;28;20045;-64
2021/06/03 02:24:39;;;;;;;3.72;2.83;;;;;;;14.24;84.18;98774.16;5060530;28;19950;-64
2021/06/03 02:27:06;;;;;;;3.10;2.80;;;;;;;14.22;83.72;98771.53;5060324;28;20040;-65
2021/06/03 02:29:32;;;;;;;4.10;2.75;;;;;;;14.14;84.57;98767.41;5065387;28;20070;-65
2021/06/03 02:31:58;;;;;;;4.18;2.90;;;;;;;14.20;85.24;98769.81;5061972;28;20084;-65
2021/06/03 02:34:24;;;;;;;5.40;3.00;;;;;;;14.24;84.68;98768.88;5063534;28;20024;-65
2021/06/03 02:36:49;;;;;;;5.38;3.08;;;;;;;14.19;84.86;98776.06;5060026;28;20025;-65
2021/06/03 02:39:15;;;;;;;5.00;3.10;;;;;;;14.23;84.84;98772.41;5050183;28;20029;-65
2021/06/03 02:41:41;;;;;;;5.65;3.08;;;;;;;14.12;85.61;98775.41;5050430;28;20079;-65
2021/06/03 02:44:06;;;;;;;5.15;2.90;;;;;;;14.16;86.01;98776.16;5051961;28;20064;-65
2021/06/03 02:46:32;;;;;;;3.22;2.78;;;;;;;14.17;85.50;98777.88;5052348;28;20021;-64
2021/06/03 02:48:57;;;;;;;5.32;3.20;;;;;;;14.18;85.76;98779.63;5050011;28;20024;-65
2021/06/03 02:51:23;;;;;;;5.32;3.67;;;;;;;14.15;85.40;98775.31;5048941;28;20491;-65
2021/06/03 02:53:49;;;;;;;6.88;3.35;;;;;;;14.14;85.57;98775.34;5053470;28;20378;-65
2021/06/03 02:56:15;;;;;;;3.83;2.63;;;;;;;14.19;85.54;98781.34;5051863;28;20091;-65
2021/06/03 02:58:42;;;;;;;5.30;2.88;;;;;;;14.22;84.88;98770.66;5048638;28;20021;-65
2021/06/03 03:01:07;;;;;;;4.30;2.58;;;;;;;14.14;85.36;98783.28;5046238;28;20028;-65
2021/06/03 03:03:33;;;;;;;3.63;3.05;;;;;;;14.16;85.58;98776.16;5046063;28;20092;-65
2021/06/03 03:05:58;;;;;;;4.00;2.95;;;;;;;14.18;85.61;98783.13;5046149;28;20018;-65
2021/06/03 03:08:24;;;;;;;3.83;2.80;;;;;;;14.22;85.00;98786.53;5048389;28;20049;-65
2021/06/03 03:10:53;;;;;;;4.35;2.70;;;;;;;14.23;84.53;98783.00;5050738;28;20308;-65
2021/06/03 03:13:20;;;;;;;3.90;2.80;;;;;;;14.20;84.74;98783.94;5050211;28;20045;-65
2021/06/03 03:15:46;;;;;;;5.75;3.20;;;;;;;14.14;85.09;98786.78;5050812;28;20013;-65
2021/06/03 03:18:11;;;;;;;3.05;2.70;;;;;;;14.18;85.42;98784.91;5050592;28;20024;-65
2021/06/03 03:20:37;;;;;;;4.90;2.90;;;;;;;14.11;85.48;98788.66;5061620;28;20021;-65
2021/06/03 03:23:06;;;;;;;3.70;3.20;;;;;;;14.12;85.79;98790.41;5062848;28;20067;-65
2021/06/03 03:25:33;;;;;;;3.92;3.00;;;;;;;14.15;85.24;98790.31;5059217;28;20189;-65
2021/06/03 03:27:59;;;;;;;4.50;3.00;;;;;;;14.17;85.26;98789.34;5065732;28;20024;-65
2021/06/03 03:30:26;;;;;;;4.75;3.40;;;;;;;14.09;85.22;98801.06;5064457;28;20032;-65
2021/06/03 03:32:52;;;;;;;6.97;2.97;;;;;;;13.95;86.34;98795.34;5065609;28;20016;-65
2021/06/03 03:35:18;;;;;;;4.13;3.25;;;;;;;14.04;85.92;98797.69;5065831;28;20209;-65
2021/06/03 03:37:45;;;;;;;4.18;3.35;;;;;;;13.99;86.66;98803.13;5065498;28;20028;-65
2021/06/03 03:40:17;;;;;;;3.67;2.85;;;;;;;14.08;86.02;98805.50;5065470;28;20023;-65
2021/06/03 03:42:43;;;;;;;3.92;2.55;;;;;;;14.14;84.96;98800.00;5058978;28;20062;-65
2021/06/03 03:45:10;;;;;;;5.07;2.67;;;;;;;14.11;85.04;98800.09;5047773;28;20244;-65
2021/06/03 03:47:36;;;;;;;6.40;3.15;;;;;;;14.06;85.24;98795.88;5052645;28;20035;-65
2021/06/03 03:50:10;;;;;;;3.22;2.90;;;;;;;14.08;85.57;98802.00;5050035;28;20025;-65
2021/06/03 03:52:37;;;;;;;3.58;2.83;;;;;;;14.13;85.50;98800.06;5048775;28;20208;-65
2021/06/03 03:55:04;;;;;;;4.65;3.30;;;;;;;14.12;86.07;98811.56;5046774;28;20079;-65
2021/06/03 03:57:29;;;;;;;8.30;3.20;;;;;;;14.21;85.90;98803.34;5048109;28;20023;-65
2021/06/03 03:59:55;;;;;;;3.60;3.30;;;;;;;14.13;85.80;98802.72;5049306;28;20017;-65
2021/06/03 04:02:20;;;;;;;4.00;3.25;;;;;;;14.18;85.64;98806.09;5061485;28;20316;-65
2021/06/03 04:04:45;;;;;;;5.45;3.13;;;;;;;14.23;85.11;98804.19;5059832;28;20016;-65
2021/06/03 04:07:11;;;;;;;4.28;3.05;;;;;;;14.11;84.88;98812.50;5057687;28;20016;-65
2021/06/03 04:09:36;;;;;;;7.15;3.08;;;;;;;14.14;86.10;98815.06;5058305;28;20054;-65
2021/06/03 04:12:02;;;;;;;4.97;2.90;;;;;;;14.31;85.23;98812.78;5056922;28;20044;-65
2021/06/03 04:14:27;;;;;;;4.55;2.58;;;;;;;14.42;84.58;98815.94;5058698;28;20040;-65
2021/06/03 04:16:53;;;;;;;3.42;2.67;;;;;;;14.48;84.44;98815.75;5058414;28;20028;-65
2021/06/03 04:19:19;;;;;;;6.50;3.15;;;;;;;14.52;84.74;98820.88;5061782;28;20058;-65
2021/06/03 04:21:45;;;;;;;4.47;3.00;;;;;;;14.57;84.63;98820.75;5065024;28;20068;-65
2021/06/03 04:24:10;;;;;;;4.85;3.53;;;;;;;14.50;85.18;98824.50;5061358;28;20051;-65
2021/06/03 04:26:36;;;;;;;6.63;3.38;;;;;;;14.62;84.81;98824.13;5061260;28;20103;-65
2021/06/03 04:29:03;;;;;;;4.78;3.28;;;;;;;14.64;84.73;98822.28;5059686;28;20017;-65
2021/06/03 04:31:28;;;;;;;3.67;2.92;;;;;;;14.75;84.21;98825.47;5057863;28;20058;-65
2021/06/03 04:33:54;;;;;;;4.70;3.05;;;;;;;14.81;84.40;98826.09;5058332;28;20016;-65
2021/06/03 04:36:20;;;;;;;6.13;3.22;;;;;;;14.89;84.05;98833.81;5059620;28;20025;-65
2021/06/03 04:38:45;;;;;;;4.47;3.60;;;;;;;14.97;84.19;98831.78;5058043;28;20392;-65
2021/06/03 04:41:11;;;;;;;4.75;3.25;;;;;;;15.04;83.83;98830.66;5058558;28;20066;-65
2021/06/03 04:43:37;;;;;;;6.03;2.70;;;;;;;15.05;84.00;98829.72;5060461;28;20211;-65
2021/06/03 04:46:03;;;;;;;4.00;3.22;;;;;;;15.02;84.47;98830.69;5059503;28;20131;-65
2021/06/03 04:48:29;;;;;;;3.15;2.85;;;;;;;15.08;84.19;98834.91;5056337;28;20376;-65
2021/06/03 04:50:55;;;;;;;6.53;3.20;;;;;;;15.06;84.80;98842.03;5059520;28;20071;-65
2021/06/03 04:53:20;;;;;;;2.65;2.30;;;;;;;15.16;84.20;98838.19;5062317;28;20067;-65
2021/06/03 04:55:46;;;;;;;4.80;2.30;;;;;;;15.26;84.17;98841.38;5059565;28;20339;-65
2021/06/03 04:58:12;;;;;;;2.78;2.55;;;;;;;15.29;83.54;98842.16;5057662;28;20032;-65
2021/06/03 05:00:41;;;;;;;5.53;3.33;;;;;;;15.36;83.33;98846.31;5060864;28;20017;-65
2021/06/03 05:03:07;;;;;;;4.95;3.35;;;;;;;15.38;83.80;98849.81;5059080;28;20041;-65
2021/06/03 05:05:33;;;;;;;4.57;3.03;;;;;;;15.48;83.75;98851.22;5059451;28;20074;-65
2021/06/03 05:07:59;;;;;;;4.53;2.83;;;;;;;15.51;83.50;98848.47;5062211;28;20013;-65
2021/06/03 05:10:26;;;;;;;3.80;2.85;;;;;;;15.59;83.62;98849.03;5058075;28;20021;-65
2021/06/03 05:12:52;;;;;;;5.28;3.25;;;;;;;15.59;82.70;98854.34;5045356;28;20019;-65
2021/06/03 05:15:18;;;;;;;4.32;3.17;;;;;;;15.66;82.50;98855.84;5049632;28;20013;-65
2021/06/03 05:17:45;;;;;;;4.28;2.92;;;;;;;15.73;82.41;98854.75;5049353;28;20206;-65
2021/06/03 05:20:12;;;;;;;5.05;2.80;;;;;;;15.74;82.08;98848.50;5057352;28;20012;-65
2021/06/03 05:22:38;;;;;;;4.60;2.80;;;;;;;15.79;81.93;98851.81;5047884;28;20029;-65
2021/06/03 05:25:10;;;;;;;7.75;3.88;;;;;;;15.83;82.75;98849.94;5050025;28;20317;-65
2021/06/03 05:27:35;;;;;;;5.13;2.75;;;;;;;15.92;82.07;98857.56;5052013;28;20049;-65
2021/06/03 05:30:01;;;;;;;5.03;3.05;;;;;;;15.95;82.00;98857.47;5056799;28;20211;-65
2021/06/03 05:32:26;;;;;;;3.80;2.97;;;;;;;16.02;81.96;98859.84;5049571;28;20021;-65
2021/06/03 05:34:52;;;;;;;4.55;2.75;;;;;;;16.01;82.16;98865.19;5047220;28;20317;-65
2021/06/03 05:37:17;;;;;;;4.60;3.67;;;;;;;15.86;82.63;98869.28;5047405;28;20025;-65
2021/06/03 05:39:43;;;;;;;3.55;2.85;;;;;;;15.95;82.57;98879.53;5050251;28;20312;-65
2021/06/03 05:42:08;;;;;;;4.32;3.08;;;;;;;15.96;81.78;98876.00;5045488;28;20154;-65
2021/06/03 05:44:35;;;;;;;4.10;3.22;;;;;;;15.95;82.48;98884.84;5046536;28;20032;-65
2021/06/03 05:47:00;;;;;;;5.15;3.22;;;;;;;15.96;82.35;98886.59;5049750;28;20316;-65
2021/06/03 05:49:29;;;;;;;4.47;2.88;;;;;;;16.04;82.19;98884.50;5045976;28;20052;-65
2021/06/03 05:51:55;;;;;;;6.10;3.20;;;;;;;15.99;83.03;98891.81;5048218;28;20216;-65
2021/06/03 05:54:21;;;;;;;4.10;3.25;;;;;;;15.97;83.51;98898.94;5049474;28;20022;-65
2021/06/03 05:56:46;;;;;;;5.55;3.78;;;;;;;16.10;82.88;98905.53;5049777;28;20027;-65
2021/06/03 05:59:12;;;;;;;4.22;3.20;;;;;;;16.42;81.27;98902.53;5050928;28;20032;-65
2021/06/03 06:01:37;;;;;;;4.15;3.25;;;;;;;17.22;78.16;98900.19;5050917;28;20021;-65
2021/06/03 06:06:30;;;;;;;5.20;2.92;;;;;;;18.80;72.97;98900.19;5051121;28;20021;-66
2021/06/03 06:09:05;;;;;;;4.13;3.28;;;;;;;20.18;68.50;98905.53;5062232;28;20021;-65
2021/06/03 06:11:33;;;;;;;10.45;2.70;;;;;;;20.31;68.73;98907.47;5050721;28;20198;-66
2021/06/03 06:14:00;;;;;;;5.35;2.45;;;;;;;19.95;69.27;98913.88;5059442;28;20009;-66
2021/06/03 06:16:25;;;;;;;6.45;2.67;;;;;;;20.04;69.38;98908.06;5049411;28;20197;-66
2021/06/03 06:18:50;;;;;;;4.18;2.25;;;;;;;19.95;69.35;98906.75;5061388;28;20017;-66
2021/06/03 06:21:18;;;;;;;4.43;2.60;;;;;;;20.63;67.37;98903.91;5067032;28;20092;-65
2021/06/03 06:23:45;;;;;;;5.72;3.08;;;;;;;21.10;65.85;98902.13;5066921;28;20021;-65
2021/06/03 06:26:11;;;;;;;2.97;2.50;;;;;;;21.44;64.24;98902.84;5066648;28;20052;-63
2021/06/03 06:28:36;;;;;;;3.90;2.63;;;;;;;22.32;61.72;98899.22;5056385;28;20084;-63
2021/06/03 06:31:04;;;;;;;6.30;2.40;;;;;;;22.93;60.55;98900.63;5047117;28;20017;-63
2021/06/03 06:33:30;;;;;;;6.03;2.60;;;;;;;23.41;59.06;98904.63;5046789;28;20309;-63
2021/06/03 06:35:55;;;;;;;4.13;2.80;;;;;;;23.89;57.09;98904.00;5046749;28;20026;-63
2021/06/03 06:38:22;;;;;;;7.75;3.40;;;;;;;24.20;56.31;98895.56;5064263;28;20020;-63
2021/06/03 06:40:49;;;;;;;7.68;3.58;;;;;;;24.92;56.19;98894.84;5066661;28;20031;-63
2021/06/03 06:43:15;;;;;;;6.20;3.55;;;;;;;25.36;53.71;98902.34;5066545;28;20021;-63
2021/06/03 06:45:42;;;;;;;5.20;3.03;;;;;;;25.88;51.84;98903.69;5066515;28;20026;-63
2021/06/03 06:48:10;;;;;;;4.53;2.90;;;;;;;26.02;50.50;98903.53;5066505;28;20048;-63
2021/06/03 06:50:37;;;;;;;5.18;2.80;;;;;;;26.07;50.52;98900.47;5066435;28;20028;-63
2021/06/03 06:53:04;;;;;;;5.28;2.85;;;;;;;26.65;50.33;98900.31;5055980;28;20305;-64
2021/06/03 06:55:30;;;;;;;4.53;2.63;;;;;;;27.22;49.50;98903.69;5046442;28;20133;-63
2021/06/03 06:57:55;;;;;;;4.40;2.53;;;;;;;27.71;47.85;98914.84;5046314;28;20021;-63
2021/06/03 07:00:26;;;;;;;10.50;3.00;;;;;;;27.95;47.04;98911.94;5046306;28;20092;-64
2021/06/03 07:02:52;;;;;;;4.63;2.08;;;;;;;28.18;46.26;98910.81;5046101;28;20025;-64
2021/06/03 07:05:17;;;;;;;6.35;2.25;;;;;;;28.62;44.29;98908.69;5064781;28;20216;-64
2021/06/03 07:07:43;;;;;;;4.55;2.08;;;;;;;28.85;44.24;98901.22;5066122;28;20269;-64
2021/06/03 07:10:09;;;;;;;5.90;2.28;;;;;;;28.50;44.87;98909.78;5066047;28;20027;-64
2021/06/03 07:12:36;;;;;;;5.57;2.38;;;;;;;29.10;43.02;98914.31;5066069;28;20063;-64
2021/06/03 07:15:06;;;;;;;3.17;1.80;;;;;;;29.18;43.69;98907.25;5065962;28;20017;-64
2021/06/03 07:17:32;;;;;;;3.03;2.10;;;;;;;29.52;43.23;98912.28;5065940;28;20376;-64
2021/06/03 07:19:57;;;;;;;4.32;2.20;;;;;;;29.54;41.78;98913.00;5065880;28;20257;-64
2021/06/03 07:22:22;;;;;;;6.63;2.13;;;;;;;29.63;43.02;98917.59;5065771;28;20028;-64
2021/06/03 07:24:48;;;;;;;4.70;2.20;;;;;;;29.55;42.06;98918.28;5065713;28;20029;-63
2021/06/03 07:27:14;;;;;;;10.00;2.67;;;;;;;29.86;42.42;98919.91;5065592;28;20052;-63
2021/06/03 07:29:40;;;;;;;5.82;2.38;;;;;;;29.70;42.41;98924.19;5065652;28;20025;-63
2021/06/03 07:32:06;;;;;;;3.33;1.98;;;;;;;29.69;41.42;98922.47;5055871;28;20024;-63
2021/06/03 07:34:32;;;;;;;3.85;2.08;;;;;;;29.78;41.66;98924.31;5045639;28;20025;-63
2021/06/03 07:36:57;;;;;;;3.08;2.13;;;;;;;29.86;41.92;98919.06;5045638;28;20033;-63
2021/06/03 07:39:25;;;;;;;5.65;2.10;;;;;;;30.64;39.09;98908.78;5045584;28;20032;-63
2021/06/03 07:41:51;;;;;;;4.03;2.45;;;;;;;30.75;40.00;98911.38;5045838;28;20025;-63
2021/06/03 07:44:17;;;;;;;3.28;2.30;;;;;;;30.92;38.68;98907.84;5045424;28;20088;-63
2021/06/03 07:46:43;;;;;;;3.55;2.33;;;;;;;30.47;40.22;98910.41;5045434;28;20029;-63
2021/06/03 07:49:12;;;;;;;3.70;2.15;;;;;;;29.93;42.28;98921.03;5045406;28;20217;-63
2021/06/03 07:51:38;;;;;;;3.35;2.00;;;;;;;29.95;41.72;98918.16;5045309;28;20028;-63
2021/06/03 07:54:03;;;;;;;4.13;2.00;;;;;;;29.80;41.38;98912.31;5043743;28;20013;-63
2021/06/03 07:56:28;;;;;;;2.15;1.90;;;;;;;29.72;42.47;98916.75;5044590;28;20233;-63
2021/06/03 07:58:54;;;;;;;4.93;2.28;;;;;;;29.52;43.30;98923.13;5045080;28;20027;-63
2021/06/03 08:01:19;;;;;;;5.00;2.35;;;;;;;28.66;42.38;98926.38;5065143;28;20025;-63
2021/06/03 08:03:45;;;;;;;3.95;2.22;;;;;;;28.00;45.42;98928.66;5064890;28;20024;-63
2021/06/03 08:06:10;;;;;;;4.07;2.35;;;;;;;28.11;46.21;98932.16;5064994;28;20028;-63
2021/06/03 08:08:36;;;;;;;3.95;2.30;;;;;;;27.93;46.71;98930.19;5065275;28;20051;-63
2021/06/03 08:11:02;;;;;;;5.65;2.83;;;;;;;27.03;48.15;98927.78;5065189;28;20024;-63
2021/06/03 08:13:28;;;;;;;3.75;2.40;;;;;;;27.04;49.12;98924.09;5064874;28;20016;-63
2021/06/03 08:15:53;;;;;;;3.08;2.15;;;;;;;27.16;49.92;98940.19;5064208;28;20067;-63
2021/06/03 08:18:19;;;;;;;3.88;2.20;;;;;;;27.09;48.98;98930.84;5064741;28;20073;-63
2021/06/03 08:20:48;;;;;;;2.75;2.20;;;;;;;26.98;50.34;98938.97;5064728;28;20225;-63
2021/06/03 08:23:16;;;;;;;6.10;2.20;;;;;;;27.08;49.95;98933.66;5064593;28;20036;-63
2021/06/03 08:25:42;;;;;;;4.55;2.10;;;;;;;27.76;51.58;98945.09;5064457;28;20051;-63
2021/06/03 08:28:07;;;;;;;2.63;2.03;;;;;;;28.08;48.42;98940.53;5064673;28;20045;-63
2021/06/03 08:30:34;;;;;;;8.65;2.55;;;;;;;28.23;46.08;98939.22;5064578;28;20024;-63
2021/06/03 08:33:01;;;;;;;6.90;2.70;;;;;;;28.25;46.29;98937.22;5054248;28;20371;-63
2021/06/03 08:35:26;;;;;;;3.63;2.40;;;;;;;28.10;47.51;98943.13;5044518;28;20025;-63
2021/06/03 08:37:57;;;;;;;5.63;2.42;;;;;;;28.64;46.08;98944.66;5044746;28;20029;-63
2021/06/03 08:40:29;;;;;;;5.03;2.83;;;;;;;29.05;46.14;98949.97;5044784;28;20327;-63
2021/06/03 08:42:56;;;;;;;4.93;2.33;;;;;;;29.04;45.29;98944.69;5044328;28;20025;-63
2021/06/03 08:45:24;;;;;;;5.03;2.33;;;;;;;28.34;46.68;98947.28;5044386;28;20017;-63
2021/06/03 08:47:51;;;;;;;5.15;2.63;;;;;;;28.59;45.12;98952.31;5044321;28;20089;-63
2021/06/03 08:50:17;;;;;;;3.60;2.50;;;;;;;28.24;47.81;98946.34;5044574;28;20252;-63
2021/06/03 08:52:43;;;;;;;4.70;2.17;;;;;;;28.07;47.70;98960.50;5044238;28;20071;-63
2021/06/03 08:56:13;;;;;;;4.97;2.65;;;;;;;27.37;50.85;98948.41;5044466;28;20205;-63
2021/06/03 08:58:02;;;;;;;4.43;2.97;;;;;;;27.47;49.71;98952.06;5044083;28;20339;-63
2021/06/03 09:00:27;;;;;;;3.72;2.80;;;;;;;27.42;48.60;98956.16;5049245;28;20036;-63
2021/06/03 09:02:53;;;;;;;8.10;2.63;;;;;;;27.31;50.35;98954.31;5063698;28;20084;-63
2021/06/03 09:05:18;;;;;;;6.03;2.60;;;;;;;27.81;50.14;98961.78;5064015;28;20031;-63
2021/06/03 09:07:44;;;;;;;5.22;2.78;;;;;;;27.79;50.31;98958.34;5063981;28;20049;-63
2021/06/03 09:10:33;;;;;;;7.47;2.95;;;;;;;29.57;45.67;98954.25;5064067;28;20079;-63
2021/06/03 09:13:13;;;;;;;3.88;2.65;;;;;;;29.91;43.63;98949.31;5063884;28;20029;-63
2021/06/03 09:15:45;;;;;;;4.25;2.70;;;;;;;30.30;44.12;98956.47;5063933;28;20087;-63
2021/06/03 09:18:11;;;;;;;3.67;2.30;;;;;;;30.39;41.23;98950.16;5063912;28;20316;-63
2021/06/03 09:20:40;;;;;;;5.15;2.22;;;;;;;31.27;40.14;98953.31;5063881;28;20028;-63
2021/06/03 09:23:07;;;;;;;3.13;2.10;;;;;;;30.52;43.17;98951.59;5063759;28;20024;-63
2021/06/03 09:25:40;;;;;;;4.82;2.40;;;;;;;30.24;43.05;98959.78;5063901;28;20021;-63
2021/06/03 09:28:22;;;;;;;4.25;2.33;;;;;;;31.27;40.53;98954.22;5065813;28;20096;-63
2021/06/03 09:30:56;;;;;;;;;;;;;;;30.13;43.52;98954.47;5068482;28;20216;-63
2021/06/03 09:33:42;;;;;;;5.90;2.40;;;;;;;28.93;43.07;98961.91;5067892;28;19905;-63
2021/06/03 09:36:11;;;;;;;5.78;2.00;;;;;;;28.48;44.20;98957.81;5063511;28;20248;-63
2021/06/03 09:38:51;;;;;;;7.72;2.47;;;;;;;28.52;47.55;98961.97;5047842;28;20351;-63
2021/06/03 09:41:18;;;;;;;3.92;2.65;;;;;;;28.30;46.87;98967.50;5048085;28;20431;-63
2021/06/03 09:43:44;;;;;;;5.03;2.70;;;;;;;27.54;45.44;98961.38;5047652;28;20024;-63
2021/06/03 09:46:13;;;;;;;4.97;2.55;;;;;;;27.78;49.24;98963.91;5046399;28;20031;-63
2021/06/03 09:48:45;;;;;;;5.13;2.38;;;;;;;29.03;48.70;98961.94;5046756;28;20040;-63
2021/06/03 09:51:21;;;;;;;;;;;;;;;28.96;47.04;98964.34;5047163;28;20343;-63
2021/06/03 09:53:55;;;;;;;4.88;2.83;;;;;;;30.43;44.59;98962.50;5046925;28;19904;-63
2021/06/03 09:56:24;;;;;;;3.17;2.58;;;;;;;30.16;43.12;98959.63;5046834;28;20025;-63
2021/06/03 09:58:50;;;;;;;2.42;1.92;;;;;;;30.44;41.90;98958.75;5046356;28;20374;-63
2021/06/03 10:01:38;;;;;;;3.35;2.22;;;;;;;31.40;43.95;98965.59;5046783;28;20017;-63
2021/06/03 10:04:04;;;;;;;6.28;2.45;;;;;;;30.02;42.70;98965.50;5050289;28;20021;-63
2021/06/03 10:06:29;;;;;;;4.70;2.60;;;;;;;29.76;43.96;98967.03;5066373;28;20028;-63
2021/06/03 10:08:56;;;;;;;4.85;2.13;;;;;;;29.45;44.54;98962.69;5066344;28;20017;-63
2021/06/03 10:11:43;;;;;;;4.45;2.30;;;;;;;29.17;46.25;98970.56;5065623;28;20024;-63
2021/06/03 10:14:10;;;;;;;5.85;2.40;;;;;;;28.58;46.81;98966.84;5066006;28;20035;-63
2021/06/03 10:16:36;;;;;;;13.80;2.50;;;;;;;28.52;48.86;98964.69;5066468;28;20021;-63
2021/06/03 10:19:17;;;;;;;7.07;2.42;;;;;;;29.29;47.16;98962.34;5064988;28;20017;-63
2021/06/03 10:21:43;;;;;;;;;;;;;;;29.65;42.92;98959.03;5066514;28;20356;-63
2021/06/03 10:24:09;;;;;;;4.15;2.42;;;;;;;29.24;45.41;98955.47;5065857;28;19916;-63
2021/06/03 10:26:57;;;;;;;4.78;2.20;;;;;;;29.02;43.91;98950.22;5065868;28;20055;-63
2021/06/03 10:29:22;;;;;;;7.57;2.50;;;;;;;28.60;47.07;98948.59;5064801;28;20045;-63
2021/06/03 10:31:48;;;;;;;5.50;2.40;;;;;;;28.68;47.76;98937.97;5064331;28;20024;-62
2021/06/03 10:34:14;;;;;;;10.55;3.03;;;;;;;29.87;46.38;98940.63;5065834;28;20185;-62
2021/06/03 10:36:41;;;;;;;6.72;2.55;;;;;;;30.47;44.69;98942.16;5065831;28;20031;-62
2021/06/03 10:39:07;;;;;;;4.72;2.60;;;;;;;29.88;46.13;98939.63;5064708;28;20271;-63
2021/06/03 10:41:32;;;;;;;4.43;2.83;;;;;;;30.00;45.18;98932.19;5065750;28;20028;-63
2021/06/03 10:43:58;;;;;;;6.22;2.75;;;;;;;29.92;45.07;98926.59;5065601;28;20328;-63
2021/06/03 10:46:23;;;;;;;6.75;2.45;;;;;;;29.97;44.69;98927.91;5065635;28;20288;-63
2021/06/03 10:48:49;;;;;;;3.08;2.15;;;;;;;29.87;45.47;98926.19;5064452;28;20257;-63
2021/06/03 10:51:15;;;;;;;4.47;2.33;;;;;;;30.01;46.59;98928.47;5065150;28;20027;-63
2021/06/03 10:53:47;;;;;;;5.93;2.75;;;;;;;29.84;44.45;98921.91;5065507;28;20021;-63
2021/06/03 10:56:13;;;;;;;;;;;;;;;30.11;46.28;98923.88;5065912;28;20348;-63
2021/06/03 10:58:41;;;;;;;4.22;2.70;;;;;;;30.24;45.01;98913.63;5054729;28;20157;-63
2021/06/03 11:01:21;;;;;;;3.00;1.92;;;;;;;29.87;44.29;98920.75;5045434;28;20029;-63
2021/06/03 11:03:51;;;;;;;4.05;2.33;;;;;;;29.66;47.58;98915.47;5044848;28;20090;-63
2021/06/03 11:06:23;;;;;;;4.40;2.60;;;;;;;29.24;47.42;98917.50;5045326;28;20032;-63
2021/06/03 11:08:50;;;;;;;;;;;;;;;29.52;46.60;98915.00;5045773;28;20017;-63
2021/06/03 11:11:15;;;;;;;4.63;2.38;;;;;;;29.36;46.48;98914.69;5045493;28;19975;-63
2021/06/03 11:13:47;;;;;;;3.20;2.30;;;;;;;29.51;45.76;98918.72;5045153;28;20317;-63
2021/06/03 11:16:21;;;;;;;4.38;2.40;;;;;;;29.65;46.62;98916.47;5044681;28;20021;-63
2021/06/03 11:18:49;;;;;;;7.35;2.60;;;;;;;29.68;45.68;98918.03;5045417;28;20217;-63
2021/06/03 11:21:33;;;;;;;5.45;2.20;;;;;;;30.12;44.86;98909.31;5045058;28;20021;-63
2021/06/03 11:23:58;;;;;;;3.95;2.30;;;;;;;30.18;45.31;98909.59;5044921;28;20053;-63
2021/06/03 11:26:42;;;;;;;6.65;2.70;;;;;;;29.43;44.68;98915.84;5054003;28;20102;-63
2021/06/03 11:29:13;;;;;;;3.10;2.10;;;;;;;28.98;46.54;98900.00;5064620;28;20088;-63
2021/06/03 11:31:45;;;;;;;4.13;2.50;;;;;;;28.87;47.96;98897.41;5064843;28;20021;-63
2021/06/03 11:34:22;;;;;;;4.40;2.45;;;;;;;28.86;46.10;98890.25;5064789;28;20028;-63
2021/06/03 11:37:02;;;;;;;2.88;2.30;;;;;;;28.52;46.50;98894.25;5064736;28;20028;-63
2021/06/03 11:39:33;;;;;;;4.40;2.28;;;;;;;28.96;46.32;98891.16;5064669;28;20028;-63